KOA weather

Ellison Onizuka Kona International At Keahole Airport
Kailua/Kona, Hawaii, United States

Public forecast

Using degrees Fahrenheit for public forecast. Weather courtesy of forecast.io.

Current aviation weather report (METAR) for Ellison Onizuka Kona International At Keahole Airport

Retrieved 2019/10/17 03:53 UTC (17 minutes ago):

PHKO 170353Z 13007KT 10SM SCT035 BKN070 27/21 A2993

Aviation forecast (TAF) for Ellison Onizuka Kona International At Keahole Airport

Retrieved 2019-10-17 00:27 UTC (4 hours ago):

TAF PHKO 162324Z 1700/1724 22008KT P6SM VCSH FEW040 SCT060 FM170500 VRB06KT P6SM FEW040 SCT050 FM172100 22008KT P6SM FEW035